createdAt,value
2023-05-03T00:02:26.542Z,0.90
2023-05-03T00:05:08.089Z,1.07
2023-05-03T00:07:39.571Z,0.90
2023-05-03T00:10:10.522Z,0.90
2023-05-03T00:12:42.638Z,0.80
2023-05-03T00:15:14.336Z,1.10
2023-05-03T00:17:43.004Z,0.90
2023-05-03T00:20:14.694Z,0.70
2023-05-03T00:22:42.637Z,0.80
2023-05-03T00:25:13.302Z,0.90
2023-05-03T00:27:42.645Z,1.10
2023-05-03T00:30:14.558Z,0.70
2023-05-03T00:32:44.572Z,0.90
2023-05-03T00:35:14.882Z,0.87
2023-05-03T00:37:42.975Z,0.90
2023-05-03T00:40:12.436Z,0.90
2023-05-03T00:42:43.645Z,0.80
2023-05-03T00:45:15.458Z,1.00
2023-05-03T00:47:46.083Z,0.90
2023-05-03T00:50:16.775Z,0.63
2023-05-03T00:52:48.554Z,0.70
2023-05-03T00:55:19.867Z,0.80
2023-05-03T00:57:49.225Z,1.07
2023-05-03T01:00:20.692Z,0.90
2023-05-03T01:02:50.133Z,0.70
2023-05-03T01:05:20.571Z,0.80
2023-05-03T01:08:29.346Z,1.10
2023-05-03T01:11:09.162Z,0.80
2023-05-03T01:14:25.453Z,0.83
2023-05-03T01:17:09.618Z,0.83
2023-05-03T01:19:42.141Z,0.67
2023-05-03T01:22:44.063Z,0.73
2023-05-03T01:25:17.447Z,0.63
2023-05-03T01:27:48.436Z,0.60
2023-05-03T01:30:20.937Z,0.70
2023-05-03T01:33:01.634Z,0.70
2023-05-03T01:35:45.424Z,0.90
2023-05-03T01:38:15.887Z,0.70
2023-05-03T01:43:35.772Z,0.63
2023-05-03T01:46:06.131Z,0.60
2023-05-03T01:48:39.624Z,0.60
2023-05-03T01:51:10.263Z,0.70
2023-05-03T01:53:40.626Z,0.60
2023-05-03T01:56:11.880Z,0.70
2023-05-03T01:58:39.802Z,0.63
2023-05-03T02:01:09.088Z,0.83
2023-05-03T02:03:40.186Z,0.97
2023-05-03T02:06:09.361Z,0.80
2023-05-03T02:08:38.183Z,0.60
2023-05-03T02:13:52.952Z,0.70
2023-05-03T02:16:22.477Z,0.73
2023-05-03T02:18:52.396Z,0.70
2023-05-03T02:21:20.284Z,0.90
2023-05-03T02:23:48.376Z,0.57
2023-05-03T02:26:17.252Z,0.80
2023-05-03T02:28:46.171Z,0.70
2023-05-03T02:31:17.122Z,0.70
2023-05-03T02:33:47.336Z,0.50
2023-05-03T02:36:16.688Z,1.03
2023-05-03T02:38:47.748Z,0.50
2023-05-03T02:41:16.575Z,0.97
2023-05-03T02:43:50.057Z,0.70
2023-05-03T02:46:18.684Z,0.70
2023-05-03T02:48:46.690Z,0.57
2023-05-03T02:51:17.421Z,0.50
2023-05-03T02:53:44.306Z,0.87
2023-05-03T02:56:12.430Z,0.60
2023-05-03T03:01:26.309Z,0.60
2023-05-03T03:03:56.736Z,0.60
2023-05-03T03:06:31.258Z,0.77
2023-05-03T03:09:01.583Z,0.60
2023-05-03T03:11:36.263Z,0.60
2023-05-03T03:14:07.981Z,0.53
2023-05-03T03:16:38.272Z,0.60
2023-05-03T03:19:06.554Z,0.83
2023-05-03T03:21:38.862Z,0.80
2023-05-03T03:24:10.635Z,0.90
2023-05-03T03:26:47.093Z,0.77
2023-05-03T03:29:18.746Z,0.60
2023-05-03T03:31:46.445Z,0.50
2023-05-03T03:34:17.197Z,0.70
2023-05-03T03:36:51.069Z,0.70
2023-05-03T03:39:19.134Z,0.63
2023-05-03T03:41:48.878Z,0.50
2023-05-03T03:44:17.765Z,0.60
2023-05-03T03:46:47.358Z,0.60
2023-05-03T03:49:17.349Z,0.60
2023-05-03T03:51:52.141Z,0.80
2023-05-03T03:54:21.714Z,0.80
2023-05-03T03:59:36.646Z,0.60
2023-05-03T04:02:08.355Z,0.70
2023-05-03T04:04:38.703Z,0.70
2023-05-03T04:07:08.466Z,0.70
2023-05-03T04:09:36.521Z,0.63
2023-05-03T04:12:06.494Z,0.60
2023-05-03T04:14:37.504Z,0.60
2023-05-03T04:17:08.708Z,0.60
2023-05-03T04:19:40.930Z,0.60
2023-05-03T04:22:11.419Z,0.70
2023-05-03T04:24:42.967Z,0.53
2023-05-03T04:27:13.797Z,0.80
2023-05-03T04:29:44.684Z,0.50
2023-05-03T04:32:19.339Z,0.63
2023-05-03T04:34:51.958Z,0.70
2023-05-03T04:37:27.084Z,0.50
2023-05-03T04:39:57.527Z,0.50
2023-05-03T04:42:29.034Z,0.80
2023-05-03T04:44:59.154Z,0.87
2023-05-03T04:47:33.798Z,0.50
2023-05-03T04:50:06.332Z,0.60
2023-05-03T04:55:38.559Z,0.70
2023-05-03T04:58:09.901Z,0.50
2023-05-03T05:00:44.299Z,0.70
2023-05-03T05:03:11.039Z,0.70
2023-05-03T05:05:38.341Z,0.70
2023-05-03T05:08:08.670Z,0.50
2023-05-03T05:10:44.114Z,0.67
2023-05-03T05:13:17.304Z,0.73
2023-05-03T05:15:44.254Z,0.70
2023-05-03T05:18:15.307Z,0.60
2023-05-03T05:20:49.790Z,0.70
2023-05-03T05:23:20.102Z,0.80
2023-05-03T05:25:50.566Z,0.83
2023-05-03T05:28:22.129Z,0.63
2023-05-03T05:30:51.293Z,0.60
2023-05-03T05:33:19.495Z,0.83
2023-05-03T05:35:51.717Z,0.63
2023-05-03T05:38:22.576Z,0.87
2023-05-03T05:40:53.673Z,0.73
2023-05-03T05:43:23.628Z,0.80
2023-05-03T05:45:56.052Z,0.80
2023-05-03T05:48:27.052Z,0.90
2023-05-03T05:50:59.073Z,0.90
2023-05-03T05:53:29.342Z,1.00
2023-05-03T05:55:59.439Z,0.97
2023-05-03T05:58:28.464Z,0.77
2023-05-03T06:01:03.730Z,0.73
2023-05-03T06:03:34.231Z,0.70
2023-05-03T06:06:02.633Z,0.90
2023-05-03T06:08:33.042Z,1.43
2023-05-03T06:11:04.001Z,1.10
2023-05-03T06:16:19.403Z,1.20
2023-05-03T06:18:51.372Z,1.10
2023-05-03T06:21:19.415Z,1.43
2023-05-03T06:23:49.455Z,1.53
2023-05-03T06:26:20.713Z,1.63
2023-05-03T06:28:51.962Z,2.03
2023-05-03T06:31:22.557Z,1.70
2023-05-03T06:33:53.890Z,1.40
2023-05-03T06:36:25.245Z,2.13
2023-05-03T06:41:37.828Z,1.80
2023-05-03T06:44:09.159Z,1.23
2023-05-03T06:46:42.244Z,1.93
2023-05-03T06:49:13.265Z,1.60
2023-05-03T06:51:41.259Z,1.60
2023-05-03T06:54:11.602Z,1.60
2023-05-03T06:56:39.672Z,1.70
2023-05-03T06:59:11.889Z,1.40
2023-05-03T07:01:42.168Z,1.40
2023-05-03T07:06:56.822Z,1.40
2023-05-03T07:09:42.272Z,1.53
2023-05-03T07:12:15.221Z,1.40
2023-05-03T07:14:45.427Z,1.30
2023-05-03T07:17:16.390Z,1.23
2023-05-03T07:19:43.863Z,1.00
2023-05-03T07:22:15.347Z,1.20
2023-05-03T07:24:46.627Z,1.30
2023-05-03T07:27:18.518Z,1.30
2023-05-03T07:29:45.173Z,1.17
2023-05-03T07:32:14.212Z,1.17
2023-05-03T07:34:44.527Z,1.50
2023-05-03T07:37:16.916Z,1.13
2023-05-03T07:39:50.208Z,1.20
2023-05-03T07:42:19.234Z,1.00
2023-05-03T07:44:48.511Z,1.20
2023-05-03T07:47:19.423Z,1.10
2023-05-03T07:49:53.764Z,0.90
2023-05-03T07:52:30.639Z,1.23
2023-05-03T07:55:03.246Z,0.90
2023-05-03T07:57:34.020Z,1.10
2023-05-03T08:00:10.049Z,1.40
2023-05-03T08:02:41.173Z,0.90
2023-05-03T08:05:18.773Z,1.10
2023-05-03T08:07:47.838Z,1.20
2023-05-03T08:10:17.701Z,1.00
2023-05-03T08:12:50.586Z,1.00
2023-05-03T08:15:17.459Z,1.00
2023-05-03T08:17:53.349Z,1.30
2023-05-03T08:20:24.367Z,1.03
2023-05-03T08:23:04.024Z,1.07
2023-05-03T08:25:33.042Z,1.00
2023-05-03T08:28:07.830Z,1.00
2023-05-03T08:30:41.724Z,0.80
2023-05-03T08:33:14.993Z,1.20
2023-05-03T08:35:48.081Z,1.33
2023-05-03T08:38:18.633Z,1.03
2023-05-03T08:40:52.137Z,1.30
2023-05-03T08:43:25.367Z,1.20
2023-05-03T08:45:53.554Z,1.13
2023-05-03T08:48:21.667Z,1.10
2023-05-03T08:50:55.821Z,1.10
2023-05-03T08:56:09.577Z,0.93
2023-05-03T08:58:38.353Z,0.97
2023-05-03T09:01:33.628Z,1.20
2023-05-03T09:04:02.107Z,1.00
2023-05-03T09:06:33.168Z,0.93
2023-05-03T09:09:34.308Z,1.03
2023-05-03T09:12:06.408Z,0.90
2023-05-03T09:14:47.328Z,0.87
2023-05-03T09:17:19.922Z,1.23
2023-05-03T09:19:57.002Z,0.93
2023-05-03T09:22:31.105Z,1.10
2023-05-03T09:25:03.851Z,1.00
2023-05-03T09:27:34.229Z,1.20
2023-05-03T09:30:20.814Z,1.00
2023-05-03T09:32:51.119Z,1.00
2023-05-03T09:35:23.494Z,1.07
2023-05-03T09:37:55.887Z,1.10
2023-05-03T09:40:25.577Z,0.90
2023-05-03T09:43:11.012Z,1.00
2023-05-03T09:45:43.206Z,0.90
2023-05-03T09:48:15.533Z,0.90
2023-05-03T09:50:45.054Z,0.90
2023-05-03T09:53:25.877Z,1.00
2023-05-03T09:55:59.294Z,0.87
2023-05-03T09:58:33.127Z,0.90
2023-05-03T10:01:04.934Z,0.90
2023-05-03T10:03:55.732Z,1.00
2023-05-03T10:06:37.981Z,0.60
2023-05-03T10:09:43.159Z,1.03
2023-05-03T10:12:13.624Z,0.70
2023-05-03T10:14:55.694Z,1.20
2023-05-03T10:17:48.304Z,1.20
2023-05-03T10:20:29.638Z,0.70
2023-05-03T10:23:10.926Z,0.90
2023-05-03T10:26:15.553Z,0.80
2023-05-03T10:28:48.847Z,0.83
2023-05-03T10:34:43.820Z,1.10
2023-05-03T10:37:15.002Z,1.00
2023-05-03T10:39:45.707Z,1.17
2023-05-03T10:42:18.320Z,0.93
2023-05-03T10:44:57.046Z,0.70
2023-05-03T10:47:25.048Z,0.90
2023-05-03T10:50:19.824Z,0.90
2023-05-03T10:52:50.878Z,1.00
2023-05-03T10:55:27.056Z,1.10
2023-05-03T10:58:01.671Z,0.90
2023-05-03T11:00:46.835Z,1.30
2023-05-03T11:03:54.820Z,0.90
2023-05-03T11:06:52.243Z,1.00
2023-05-03T11:09:21.488Z,0.70
2023-05-03T11:14:36.077Z,0.90
2023-05-03T11:17:07.706Z,0.90
2023-05-03T11:19:38.136Z,1.10
2023-05-03T11:22:05.293Z,1.00
2023-05-03T11:24:35.774Z,0.80
2023-05-03T11:27:07.811Z,1.07
2023-05-03T11:29:38.836Z,1.07
2023-05-03T11:32:08.552Z,0.70
2023-05-03T11:34:50.241Z,1.07
2023-05-03T11:37:20.507Z,0.93
2023-05-03T11:39:47.804Z,0.70
2023-05-03T11:42:19.135Z,0.80
2023-05-03T11:44:49.755Z,0.90
2023-05-03T11:47:18.231Z,0.93
2023-05-03T11:49:59.190Z,1.00
2023-05-03T11:52:30.989Z,0.90
2023-05-03T11:55:03.772Z,0.83
2023-05-03T11:57:35.806Z,0.80
2023-05-03T12:00:29.891Z,0.70
2023-05-03T12:02:59.795Z,0.87
2023-05-03T12:08:13.418Z,0.83
2023-05-03T12:10:50.027Z,1.03
2023-05-03T12:13:29.865Z,0.97
2023-05-03T12:19:05.057Z,0.80
2023-05-03T12:22:18.079Z,0.87
2023-05-03T12:24:45.645Z,0.90
2023-05-03T12:27:19.287Z,0.90
2023-05-03T12:30:02.034Z,0.80
2023-05-03T12:32:33.590Z,1.00
2023-05-03T12:35:03.283Z,0.80
2023-05-03T12:37:38.126Z,0.90
2023-05-03T12:42:49.095Z,0.93
2023-05-03T12:45:21.369Z,0.90
2023-05-03T12:47:54.084Z,0.80
2023-05-03T12:50:24.933Z,1.00
2023-05-03T12:52:56.530Z,1.03
2023-05-03T12:55:25.626Z,0.90
2023-05-03T12:58:18.129Z,0.80
2023-05-03T13:01:26.279Z,0.90
2023-05-03T13:03:44.469Z,0.90
2023-05-03T13:06:23.127Z,0.90
2023-05-03T13:09:02.779Z,0.90
2023-05-03T13:11:37.434Z,0.80
2023-05-03T13:14:04.487Z,1.00
2023-05-03T13:16:37.785Z,1.00
2023-05-03T13:19:08.020Z,1.00
2023-05-03T13:21:39.740Z,1.27
2023-05-03T13:24:10.096Z,0.97
2023-05-03T13:26:39.108Z,0.90
2023-05-03T13:29:10.130Z,1.00
2023-05-03T13:31:43.563Z,1.40
2023-05-03T13:34:12.184Z,0.90
2023-05-03T13:36:46.538Z,0.90
2023-05-03T13:42:00.074Z,0.70
2023-05-03T13:44:39.558Z,0.90
2023-05-03T13:47:11.059Z,1.10
2023-05-03T13:49:42.945Z,0.93
2023-05-03T13:52:13.071Z,1.07
2023-05-03T13:54:45.648Z,1.00
2023-05-03T13:57:41.093Z,1.13
2023-05-03T14:00:13.520Z,1.10
2023-05-03T14:02:45.778Z,0.90
2023-05-03T14:05:14.658Z,0.90
2023-05-03T14:07:42.150Z,0.87
2023-05-03T14:10:12.894Z,0.90
2023-05-03T14:12:44.571Z,0.97
2023-05-03T14:15:17.771Z,1.10
2023-05-03T14:17:54.136Z,0.80
2023-05-03T14:20:26.271Z,0.90
2023-05-03T14:22:57.785Z,0.80
2023-05-03T14:25:29.676Z,0.90
2023-05-03T14:28:01.753Z,0.90
2023-05-03T14:30:32.771Z,1.00
2023-05-03T14:33:00.842Z,0.80
2023-05-03T14:35:31.421Z,0.70
2023-05-03T14:38:00.908Z,0.80
2023-05-03T14:40:30.682Z,0.90
2023-05-03T14:43:01.946Z,0.93
2023-05-03T14:45:33.515Z,1.00
2023-05-03T14:48:03.576Z,1.30
2023-05-03T14:50:39.420Z,0.90
2023-05-03T14:53:10.616Z,0.70
2023-05-03T14:55:40.119Z,0.90
2023-05-03T14:58:12.342Z,0.90
2023-05-03T15:00:49.697Z,1.00
2023-05-03T15:03:21.204Z,0.83
2023-05-03T15:05:52.222Z,0.83
2023-05-03T15:08:29.368Z,0.90
2023-05-03T15:11:01.435Z,0.80
2023-05-03T15:16:13.705Z,0.80
2023-05-03T15:18:48.071Z,1.00
2023-05-03T15:21:24.570Z,0.87
2023-05-03T15:23:56.717Z,0.83
2023-05-03T15:26:29.514Z,0.93
2023-05-03T15:28:59.552Z,1.27
2023-05-03T15:31:30.903Z,0.90
2023-05-03T15:34:00.604Z,0.90
2023-05-03T15:36:32.312Z,0.77
2023-05-03T15:39:01.364Z,0.80
2023-05-03T15:41:31.832Z,1.43
2023-05-03T15:44:07.486Z,0.90
2023-05-03T15:46:40.814Z,1.00
2023-05-03T15:49:13.504Z,0.83
2023-05-03T15:51:41.511Z,0.80
2023-05-03T15:54:11.604Z,0.73
2023-05-03T15:56:42.693Z,0.90
2023-05-03T15:59:17.092Z,0.70
2023-05-03T16:01:45.288Z,0.87
2023-05-03T16:04:16.549Z,0.80
2023-05-03T16:06:46.193Z,0.90
2023-05-03T16:09:19.470Z,0.90
2023-05-03T16:11:53.158Z,0.73
2023-05-03T16:14:24.816Z,0.80
2023-05-03T16:16:56.636Z,0.60
2023-05-03T16:19:26.825Z,0.73
2023-05-03T16:21:54.967Z,0.60
2023-05-03T16:24:23.408Z,0.70
2023-05-03T16:26:54.915Z,0.70
2023-05-03T16:29:26.326Z,1.00
2023-05-03T16:32:04.339Z,0.90
2023-05-03T16:34:37.432Z,0.90
2023-05-03T16:37:09.153Z,0.60
2023-05-03T16:39:42.049Z,0.77
2023-05-03T16:42:12.245Z,0.80
2023-05-03T16:44:44.050Z,0.70
2023-05-03T16:47:12.597Z,0.60
2023-05-03T16:52:26.423Z,0.93
2023-05-03T16:55:00.998Z,0.53
2023-05-03T16:57:32.461Z,0.90
2023-05-03T17:00:12.199Z,0.80
2023-05-03T17:02:43.517Z,1.00
2023-05-03T17:05:13.891Z,0.93
2023-05-03T17:07:43.911Z,0.97
2023-05-03T17:10:15.420Z,0.90
2023-05-03T17:12:47.263Z,0.93
2023-05-03T17:15:16.579Z,0.87
2023-05-03T17:17:48.413Z,0.70
2023-05-03T17:20:23.275Z,1.00
2023-05-03T17:22:51.784Z,0.90
2023-05-03T17:25:23.943Z,1.07
2023-05-03T17:27:55.121Z,0.70
2023-05-03T17:30:23.549Z,0.80
2023-05-03T17:32:55.410Z,0.90
2023-05-03T17:35:26.948Z,1.13
2023-05-03T17:38:02.076Z,0.77
2023-05-03T17:40:33.397Z,1.00
2023-05-03T17:43:05.134Z,0.90
2023-05-03T17:45:34.920Z,0.83
2023-05-03T17:48:06.002Z,0.87
2023-05-03T17:50:37.362Z,0.93
2023-05-03T17:53:09.099Z,0.80
2023-05-03T17:55:40.988Z,0.80
2023-05-03T17:58:11.126Z,0.80
2023-05-03T18:00:41.361Z,0.90
2023-05-03T18:03:15.474Z,0.73
2023-05-03T18:05:49.058Z,0.80
2023-05-03T18:08:19.435Z,1.00
2023-05-03T18:10:50.329Z,0.97
2023-05-03T18:13:19.401Z,1.00
2023-05-03T18:15:50.830Z,0.80
2023-05-03T18:18:20.343Z,1.00
2023-05-03T18:21:01.796Z,1.00
2023-05-03T18:23:32.983Z,1.10
2023-05-03T18:26:05.702Z,1.20
2023-05-03T18:28:38.144Z,1.10
2023-05-03T18:31:07.834Z,1.00
2023-05-03T18:33:36.716Z,1.30
2023-05-03T18:36:21.720Z,1.20
2023-05-03T18:38:56.021Z,1.47
2023-05-03T18:41:26.839Z,1.37
2023-05-03T18:43:56.969Z,1.53
2023-05-03T18:46:28.948Z,1.20
2023-05-03T18:48:58.334Z,1.60
2023-05-03T18:51:32.168Z,1.10
2023-05-03T18:54:02.928Z,1.10
2023-05-03T18:56:34.292Z,1.20
2023-05-03T18:59:02.509Z,1.23
2023-05-03T19:07:20.330Z,1.33
2023-05-03T19:10:02.948Z,1.10
2023-05-03T19:12:54.089Z,1.20
2023-05-03T19:18:42.208Z,1.13
2023-05-03T19:21:11.476Z,1.40
2023-05-03T19:23:43.423Z,1.40
2023-05-03T19:26:11.971Z,1.40
2023-05-03T19:28:45.600Z,1.30
2023-05-03T19:31:15.574Z,1.10
2023-05-03T19:33:48.220Z,1.20
2023-05-03T19:36:20.266Z,1.43
2023-05-03T19:38:53.916Z,1.20
2023-05-03T19:41:22.853Z,1.10
2023-05-03T19:43:55.979Z,1.13
2023-05-03T19:46:25.344Z,1.60
2023-05-03T19:48:58.814Z,1.30
2023-05-03T19:51:27.870Z,1.40
2023-05-03T19:54:02.789Z,1.10
2023-05-03T19:56:32.308Z,1.23
2023-05-03T19:59:00.393Z,1.13
2023-05-03T20:01:31.886Z,1.57
2023-05-03T20:04:02.054Z,1.40
2023-05-03T20:06:32.207Z,1.50
2023-05-03T20:09:02.205Z,1.67
2023-05-03T20:11:32.168Z,1.67
2023-05-03T20:13:59.887Z,1.30
2023-05-03T20:16:44.611Z,1.50
2023-05-03T20:19:17.740Z,1.60
2023-05-03T20:21:44.979Z,1.40
2023-05-03T20:24:17.600Z,1.70
2023-05-03T20:26:48.184Z,1.40
2023-05-03T20:29:17.004Z,1.53
2023-05-03T20:31:48.518Z,1.33
2023-05-03T20:34:20.107Z,1.67
2023-05-03T20:36:53.324Z,1.60
2023-05-03T20:39:23.868Z,1.60
2023-05-03T20:41:55.239Z,1.23
2023-05-03T20:44:27.218Z,1.33
2023-05-03T20:47:01.806Z,1.50
2023-05-03T20:49:38.568Z,1.70
2023-05-03T20:52:11.986Z,1.63
2023-05-03T20:54:43.739Z,1.47
2023-05-03T20:57:21.306Z,1.20
2023-05-03T20:59:53.273Z,1.30
2023-05-03T21:02:24.653Z,1.70
2023-05-03T21:04:55.093Z,1.30
2023-05-03T21:07:25.347Z,1.43
2023-05-03T21:09:54.628Z,1.23
2023-05-03T21:12:25.735Z,1.33
2023-05-03T21:14:53.990Z,1.30
2023-05-03T21:17:23.806Z,1.30
2023-05-03T21:19:54.956Z,1.20
2023-05-03T21:22:25.376Z,1.83
2023-05-03T21:24:56.833Z,1.43
2023-05-03T21:27:27.343Z,1.30
2023-05-03T21:29:57.207Z,1.30
2023-05-03T21:32:27.751Z,1.23
2023-05-03T21:37:39.784Z,1.27
2023-05-03T21:40:11.304Z,1.50
2023-05-03T21:42:44.459Z,1.20
2023-05-03T21:45:13.884Z,1.43
2023-05-03T21:47:54.455Z,1.30
2023-05-03T21:50:26.285Z,1.10
2023-05-03T21:52:55.501Z,1.10
2023-05-03T21:55:26.308Z,1.17
2023-05-03T21:57:59.846Z,1.20
2023-05-03T22:00:31.563Z,1.40
2023-05-03T22:03:01.003Z,1.30
2023-05-03T22:05:33.199Z,1.23
2023-05-03T22:08:03.389Z,1.30
2023-05-03T22:10:35.135Z,1.07
2023-05-03T22:13:06.446Z,1.10
2023-05-03T22:15:35.421Z,1.10
2023-05-03T22:18:05.994Z,1.17
2023-05-03T22:20:39.029Z,1.10
2023-05-03T22:23:11.093Z,1.30
2023-05-03T22:25:42.509Z,1.13
2023-05-03T22:28:13.815Z,1.20
2023-05-03T22:30:44.341Z,1.50
2023-05-03T22:33:17.474Z,1.40
2023-05-03T22:35:47.868Z,1.10
2023-05-03T22:38:19.686Z,1.33
2023-05-03T22:40:47.485Z,1.10
2023-05-03T22:43:19.671Z,1.03
2023-05-03T22:45:47.055Z,0.93
2023-05-03T22:48:18.593Z,1.20
2023-05-03T22:50:49.265Z,1.20
2023-05-03T22:53:19.261Z,1.40
2023-05-03T22:56:20.043Z,1.10
2023-05-03T22:58:48.675Z,1.00
2023-05-03T23:01:19.312Z,1.10
2023-05-03T23:03:50.606Z,1.30
2023-05-03T23:06:20.982Z,0.90
2023-05-03T23:08:54.605Z,0.90
2023-05-03T23:11:25.923Z,1.00
2023-05-03T23:13:54.709Z,1.10
2023-05-03T23:16:29.844Z,1.00
2023-05-03T23:19:01.100Z,1.40
2023-05-03T23:21:36.219Z,0.87
2023-05-03T23:24:08.805Z,0.90
2023-05-03T23:26:39.346Z,1.20
2023-05-03T23:29:09.530Z,1.00
2023-05-03T23:31:41.679Z,1.37
2023-05-03T23:34:12.470Z,1.07
2023-05-03T23:36:43.082Z,1.40
2023-05-03T23:39:14.319Z,0.90
2023-05-03T23:41:45.987Z,1.00
2023-05-03T23:44:18.710Z,0.90
2023-05-03T23:46:51.994Z,1.00
2023-05-03T23:49:27.566Z,0.93
2023-05-03T23:51:59.290Z,1.37
2023-05-03T23:54:30.580Z,0.90
2023-05-03T23:57:00.178Z,0.70
2023-05-03T23:59:29.260Z,1.20
